createdAt,value
2023-06-02T00:01:34.476Z,1.20
2023-06-02T00:04:06.262Z,1.00
2023-06-02T00:06:35.395Z,2.20
2023-06-02T00:09:09.054Z,1.13
2023-06-02T00:11:36.789Z,1.10
2023-06-02T00:14:08.394Z,0.90
2023-06-02T00:16:46.405Z,2.27
2023-06-02T00:19:14.429Z,2.35
2023-06-02T00:21:47.203Z,2.72
2023-06-02T00:24:14.746Z,1.80
2023-06-02T00:26:41.586Z,1.67
2023-06-02T00:29:08.465Z,1.00
2023-06-02T00:31:35.924Z,1.15
2023-06-02T00:34:02.956Z,2.75
2023-06-02T00:36:29.813Z,1.05
2023-06-02T00:38:56.856Z,2.28
2023-06-02T00:41:23.735Z,1.35
2023-06-02T00:43:50.632Z,1.58
2023-06-02T00:46:17.586Z,2.45
2023-06-02T00:48:44.867Z,1.08
2023-06-02T00:51:11.975Z,2.17
2023-06-02T00:53:40.132Z,1.00
2023-06-02T00:56:07.743Z,1.00
2023-06-02T00:58:39.248Z,1.42
2023-06-02T01:01:10.269Z,1.38
2023-06-02T01:03:39.187Z,1.53
2023-06-02T01:06:07.156Z,1.65
2023-06-02T01:08:38.412Z,1.42
2023-06-02T01:11:06.735Z,1.67
2023-06-02T01:13:34.313Z,2.85
2023-06-02T01:16:01.375Z,2.55
2023-06-02T01:18:30.630Z,2.08
2023-06-02T01:21:00.038Z,1.55
2023-06-02T01:23:36.846Z,1.35
2023-06-02T01:26:10.593Z,0.98
2023-06-02T01:28:38.921Z,1.42
2023-06-02T01:31:18.157Z,1.73
2023-06-02T01:34:11.345Z,1.08
2023-06-02T01:36:41.281Z,1.70
2023-06-02T01:39:10.874Z,1.65
2023-06-02T01:41:43.905Z,0.95
2023-06-02T01:44:11.093Z,1.05
2023-06-02T01:46:40.913Z,1.10
2023-06-02T01:49:18.679Z,1.67
2023-06-02T01:51:46.173Z,2.35
2023-06-02T01:54:13.182Z,3.33
2023-06-02T01:56:40.065Z,1.23
2023-06-02T01:59:07.072Z,1.30
2023-06-02T02:01:35.162Z,3.67
2023-06-02T02:04:02.157Z,2.03
2023-06-02T02:06:31.833Z,1.38
2023-06-02T02:08:59.648Z,2.38
2023-06-02T02:11:30.006Z,1.55
2023-06-02T02:13:56.957Z,1.67
2023-06-02T02:16:23.923Z,1.73
2023-06-02T02:18:53.519Z,1.00
2023-06-02T02:21:20.920Z,1.92
2023-06-02T02:23:47.845Z,1.42
2023-06-02T02:26:14.859Z,1.58
2023-06-02T02:28:41.758Z,1.02
2023-06-02T02:31:08.830Z,0.93
2023-06-02T02:33:35.714Z,2.50
2023-06-02T02:36:03.528Z,0.93
2023-06-02T02:38:30.678Z,2.03
2023-06-02T02:40:57.709Z,1.55
2023-06-02T02:43:24.980Z,1.67
2023-06-02T02:45:53.211Z,0.80
2023-06-02T02:48:20.512Z,2.10
2023-06-02T02:50:47.477Z,3.28
2023-06-02T02:53:17.036Z,0.77
2023-06-02T02:55:45.450Z,1.70
2023-06-02T02:58:12.825Z,1.00
2023-06-02T03:00:40.434Z,1.95
2023-06-02T03:03:08.031Z,1.55
2023-06-02T03:05:35.994Z,1.20
2023-06-02T03:08:06.130Z,1.30
2023-06-02T03:10:33.056Z,2.28
2023-06-02T03:12:59.994Z,0.93
2023-06-02T03:15:28.482Z,2.17
2023-06-02T03:17:59.084Z,0.93
2023-06-02T03:20:26.571Z,1.88
2023-06-02T03:22:53.851Z,1.55
2023-06-02T03:25:22.034Z,1.25
2023-06-02T03:27:52.156Z,1.60
2023-06-02T03:30:19.149Z,1.02
2023-06-02T03:32:46.203Z,0.98
2023-06-02T03:35:13.447Z,1.02
2023-06-02T03:37:42.237Z,2.10
2023-06-02T03:40:10.883Z,2.33
2023-06-02T03:42:39.286Z,0.77
2023-06-02T03:45:09.131Z,2.53
2023-06-02T03:47:36.264Z,1.40
2023-06-02T03:50:03.340Z,1.45
2023-06-02T03:52:31.847Z,1.35
2023-06-02T03:54:59.494Z,1.30
2023-06-02T03:57:27.595Z,1.00
2023-06-02T03:59:54.588Z,0.95
2023-06-02T04:02:21.726Z,1.50
2023-06-02T04:04:48.959Z,1.08
2023-06-02T04:07:15.885Z,2.00
2023-06-02T04:09:42.925Z,1.60
2023-06-02T04:12:10.096Z,2.25
2023-06-02T04:14:38.228Z,1.95
2023-06-02T04:17:06.783Z,3.38
2023-06-02T04:19:34.203Z,1.38
2023-06-02T04:22:02.524Z,1.33
2023-06-02T04:24:29.638Z,1.35
2023-06-02T04:26:56.690Z,1.20
2023-06-02T04:29:23.976Z,2.13
2023-06-02T04:31:51.796Z,1.08
2023-06-02T04:34:28.505Z,1.23
2023-06-02T04:36:55.910Z,1.60
2023-06-02T04:39:23.953Z,2.42
2023-06-02T04:41:51.892Z,1.17
2023-06-02T04:44:20.480Z,1.15
2023-06-02T04:46:48.913Z,1.17
2023-06-02T04:49:16.900Z,1.00
2023-06-02T04:51:45.405Z,2.28
2023-06-02T04:54:12.806Z,1.27
2023-06-02T04:56:40.294Z,0.80
2023-06-02T04:59:12.830Z,2.05
2023-06-02T05:01:40.737Z,1.05
2023-06-02T05:04:08.048Z,1.67
2023-06-02T05:06:36.024Z,0.88
2023-06-02T05:09:05.946Z,1.77
2023-06-02T05:11:34.090Z,1.10
2023-06-02T05:14:03.325Z,1.73
2023-06-02T05:16:32.022Z,1.17
2023-06-02T05:18:59.310Z,1.20
2023-06-02T05:21:26.621Z,1.52
2023-06-02T05:23:54.022Z,1.33
2023-06-02T05:26:21.021Z,1.45
2023-06-02T05:28:51.081Z,2.17
2023-06-02T05:31:18.701Z,1.30
2023-06-02T05:33:46.219Z,2.30
2023-06-02T05:36:13.124Z,1.48
2023-06-02T05:38:44.359Z,2.00
2023-06-02T05:41:12.306Z,4.45
2023-06-02T05:43:39.327Z,1.63
2023-06-02T05:46:07.647Z,2.80
2023-06-02T05:48:34.979Z,2.15
2023-06-02T05:51:01.946Z,1.58
2023-06-02T05:53:29.378Z,1.80
2023-06-02T05:55:56.489Z,2.25
2023-06-02T05:58:23.610Z,12.45
2023-06-02T06:00:51.206Z,7.78
2023-06-02T06:03:18.296Z,15.02
2023-06-02T06:05:46.511Z,23.20
2023-06-02T06:08:13.439Z,22.67
2023-06-02T06:10:43.569Z,23.48
2023-06-02T06:13:11.190Z,19.30
2023-06-02T06:15:38.645Z,19.98
2023-06-02T06:18:05.820Z,18.50
2023-06-02T06:20:32.751Z,15.88
2023-06-02T06:23:00.032Z,14.40
2023-06-02T06:25:28.816Z,16.30
2023-06-02T06:27:56.204Z,13.20
2023-06-02T06:30:24.318Z,10.63
2023-06-02T06:32:55.640Z,13.55
2023-06-02T06:35:23.543Z,14.93
2023-06-02T06:37:50.564Z,13.00
2023-06-02T06:40:17.989Z,13.02
2023-06-02T06:42:45.381Z,10.95
2023-06-02T06:45:17.670Z,9.68
2023-06-02T06:47:44.668Z,10.23
2023-06-02T06:50:16.646Z,7.15
2023-06-02T06:52:46.332Z,10.35
2023-06-02T06:55:13.310Z,15.32
2023-06-02T06:57:40.185Z,8.60
2023-06-02T07:00:07.806Z,6.97
2023-06-02T07:02:35.881Z,9.00
2023-06-02T07:05:02.827Z,9.05
2023-06-02T07:07:29.730Z,7.95
2023-06-02T07:09:57.140Z,7.30
2023-06-02T07:12:24.050Z,5.93
2023-06-02T07:14:52.671Z,7.05
2023-06-02T07:17:20.090Z,7.13
2023-06-02T07:19:47.176Z,5.55
2023-06-02T07:22:14.039Z,5.75
2023-06-02T07:24:42.675Z,3.90
2023-06-02T07:27:09.722Z,3.40
2023-06-02T07:29:36.676Z,5.15
2023-06-02T07:32:03.729Z,6.55
2023-06-02T07:34:30.638Z,3.60
2023-06-02T07:36:57.634Z,2.70
2023-06-02T07:39:24.488Z,4.20
2023-06-02T07:41:51.370Z,4.30
2023-06-02T07:44:18.263Z,5.03
2023-06-02T07:46:46.975Z,3.03
2023-06-02T07:49:14.499Z,2.47
2023-06-02T07:51:41.480Z,3.33
2023-06-02T07:54:08.438Z,3.40
2023-06-02T07:56:37.632Z,2.47
2023-06-02T07:59:04.672Z,5.05
2023-06-02T08:01:31.714Z,3.65
2023-06-02T08:03:58.690Z,3.42
2023-06-02T08:06:25.796Z,4.20
2023-06-02T08:08:52.675Z,3.55
2023-06-02T08:11:19.895Z,3.58
2023-06-02T08:13:46.858Z,4.68
2023-06-02T08:16:27.543Z,4.43
2023-06-02T08:18:57.436Z,6.03
2023-06-02T08:21:24.717Z,2.97
2023-06-02T08:23:51.857Z,6.65
2023-06-02T08:26:18.990Z,4.38
2023-06-02T08:28:49.917Z,3.83
2023-06-02T08:31:20.072Z,2.65
2023-06-02T08:33:48.932Z,7.03
2023-06-02T08:36:18.694Z,4.22
2023-06-02T08:38:46.847Z,3.97
2023-06-02T08:41:14.084Z,4.15
2023-06-02T08:43:42.292Z,4.13
2023-06-02T08:46:14.778Z,8.95
2023-06-02T08:48:46.841Z,6.78
2023-06-02T08:53:48.734Z,6.78
2023-06-02T08:56:17.342Z,4.38
2023-06-02T08:58:46.359Z,3.53
2023-06-02T09:01:13.804Z,2.95
2023-06-02T09:03:46.697Z,3.30
2023-06-02T09:06:26.877Z,2.63
2023-06-02T09:09:01.561Z,3.92
2023-06-02T09:11:29.987Z,3.17
2023-06-02T09:13:57.908Z,3.13
2023-06-02T09:16:39.400Z,4.03
2023-06-02T09:19:06.503Z,10.57
2023-06-02T09:21:35.036Z,5.03
2023-06-02T09:24:13.651Z,3.13
2023-06-02T09:26:50.896Z,3.58
2023-06-02T09:29:20.002Z,5.65
2023-06-02T09:31:47.702Z,3.35
2023-06-02T09:34:16.042Z,5.22
2023-06-02T09:36:44.363Z,3.05
2023-06-02T09:39:11.992Z,5.55
2023-06-02T09:41:40.205Z,5.93
2023-06-02T09:44:14.593Z,3.60
2023-06-02T09:46:46.026Z,2.97
2023-06-02T09:49:13.343Z,4.82
2023-06-02T09:51:40.580Z,3.20
2023-06-02T09:54:09.324Z,3.35
2023-06-02T09:56:40.329Z,6.68
2023-06-02T09:59:08.171Z,5.18
2023-06-02T10:01:37.206Z,1.95
2023-06-02T10:04:06.537Z,3.13
2023-06-02T10:07:07.348Z,3.22
2023-06-02T10:09:43.347Z,2.17
2023-06-02T10:12:33.941Z,3.60
2023-06-02T10:15:19.463Z,3.50
2023-06-02T10:18:17.068Z,4.05
2023-06-02T10:21:12.212Z,2.50
2023-06-02T10:24:12.859Z,6.22
2023-06-02T10:26:58.395Z,3.88
2023-06-02T10:29:27.012Z,2.60
2023-06-02T10:31:54.034Z,3.83
2023-06-02T10:34:36.702Z,3.65
2023-06-02T10:37:07.177Z,3.30
2023-06-02T10:39:40.139Z,3.80
2023-06-02T10:42:17.246Z,4.50
2023-06-02T10:44:44.866Z,4.28
2023-06-02T10:47:21.548Z,2.63
2023-06-02T10:50:05.516Z,2.10
2023-06-02T10:52:56.127Z,3.50
2023-06-02T10:55:22.987Z,2.88
2023-06-02T10:57:50.542Z,3.50
2023-06-02T11:00:44.321Z,4.35
2023-06-02T11:03:18.639Z,2.63
2023-06-02T11:05:47.301Z,2.15
2023-06-02T11:08:15.336Z,1.42
2023-06-02T11:11:01.492Z,1.20
2023-06-02T11:13:29.442Z,3.03
2023-06-02T11:15:59.676Z,2.47
2023-06-02T11:18:30.224Z,2.65
2023-06-02T11:20:58.688Z,2.33
2023-06-02T11:23:26.753Z,1.23
2023-06-02T11:26:05.750Z,1.83
2023-06-02T11:28:32.958Z,2.20
2023-06-02T11:31:16.235Z,1.70
2023-06-02T11:33:49.365Z,2.92
2023-06-02T11:36:28.151Z,1.48
2023-06-02T11:39:05.753Z,3.00
2023-06-02T11:41:32.885Z,3.55
2023-06-02T11:44:13.113Z,1.90
2023-06-02T11:46:42.859Z,2.20
2023-06-02T11:49:09.944Z,1.40
2023-06-02T11:51:37.295Z,2.22
2023-06-02T11:54:06.331Z,1.48
2023-06-02T11:56:33.844Z,2.00
2023-06-02T11:59:00.845Z,3.55
2023-06-02T12:01:34.584Z,1.50
2023-06-02T12:04:06.428Z,2.35
2023-06-02T12:06:52.883Z,1.65
2023-06-02T12:09:22.144Z,2.33
2023-06-02T12:11:49.257Z,2.13
2023-06-02T12:14:16.310Z,1.70
2023-06-02T12:16:45.030Z,2.67
2023-06-02T12:19:22.862Z,3.28
2023-06-02T12:21:55.439Z,2.60
2023-06-02T12:24:32.781Z,1.42
2023-06-02T12:26:59.825Z,2.47
2023-06-02T12:29:27.118Z,2.63
2023-06-02T12:32:01.371Z,1.58
2023-06-02T12:34:31.541Z,2.90
2023-06-02T12:36:59.485Z,1.65
2023-06-02T12:39:26.443Z,4.05
2023-06-02T12:41:53.303Z,2.78
2023-06-02T12:44:20.561Z,2.83
2023-06-02T12:46:49.195Z,1.50
2023-06-02T12:49:16.570Z,2.40
2023-06-02T12:51:43.989Z,4.03
2023-06-02T12:54:10.971Z,3.58
2023-06-02T12:56:41.753Z,1.73
2023-06-02T12:59:13.269Z,1.83
2023-06-02T13:01:41.076Z,1.63
2023-06-02T13:04:08.782Z,1.70
2023-06-02T13:06:37.587Z,2.80
2023-06-02T13:09:05.198Z,2.78
2023-06-02T13:11:32.277Z,5.53
2023-06-02T13:14:01.993Z,3.17
2023-06-02T13:16:28.962Z,3.35
2023-06-02T13:18:56.685Z,3.60
2023-06-02T13:21:23.662Z,3.70
2023-06-02T13:23:54.683Z,5.20
2023-06-02T13:26:22.302Z,3.90
2023-06-02T13:28:49.287Z,1.98
2023-06-02T13:31:16.486Z,2.80
2023-06-02T13:33:43.506Z,1.58
2023-06-02T13:36:10.434Z,4.18
2023-06-02T13:38:37.320Z,2.45
2023-06-02T13:41:04.673Z,4.18
2023-06-02T13:43:31.712Z,3.88
2023-06-02T13:45:58.873Z,3.03
2023-06-02T13:48:25.835Z,3.47
2023-06-02T13:50:52.713Z,9.52
2023-06-02T13:53:19.572Z,5.93
2023-06-02T13:55:46.487Z,3.67
2023-06-02T13:58:13.482Z,4.90
2023-06-02T14:00:41.648Z,1.73
2023-06-02T14:03:08.979Z,3.25
2023-06-02T14:05:35.984Z,4.28
2023-06-02T14:08:03.289Z,1.98
2023-06-02T14:10:30.383Z,2.42
2023-06-02T14:12:57.348Z,3.80
2023-06-02T14:15:24.271Z,2.65
2023-06-02T14:17:52.047Z,3.03
2023-06-02T14:20:19.925Z,2.58
2023-06-02T14:22:46.978Z,2.70
2023-06-02T14:25:13.998Z,3.40
2023-06-02T14:27:41.164Z,3.88
2023-06-02T14:30:08.898Z,6.38
2023-06-02T14:32:36.129Z,2.63
2023-06-02T14:35:03.638Z,2.25
2023-06-02T14:37:31.103Z,4.25
2023-06-02T14:39:58.641Z,2.05
2023-06-02T14:42:27.351Z,2.75
2023-06-02T14:44:54.284Z,3.70
2023-06-02T14:47:21.401Z,3.38
2023-06-02T14:49:48.304Z,3.05
2023-06-02T14:52:15.208Z,4.00
2023-06-02T14:54:42.163Z,2.92
2023-06-02T14:57:09.100Z,2.35
2023-06-02T14:59:35.955Z,8.52
2023-06-02T15:02:03.739Z,2.47
2023-06-02T15:04:30.576Z,5.35
2023-06-02T15:06:57.417Z,3.15
2023-06-02T15:09:24.446Z,4.18
2023-06-02T15:11:51.386Z,4.90
2023-06-02T15:14:19.381Z,2.88
2023-06-02T15:16:46.937Z,7.72
2023-06-02T15:19:13.889Z,4.10
2023-06-02T15:21:41.729Z,3.17
2023-06-02T15:24:09.077Z,3.92
2023-06-02T15:26:36.340Z,3.72
2023-06-02T15:29:04.548Z,2.90
2023-06-02T15:31:31.574Z,4.30
2023-06-02T15:33:58.444Z,4.40
2023-06-02T15:36:30.618Z,4.05
2023-06-02T15:38:57.750Z,3.13
2023-06-02T15:41:25.038Z,1.60
2023-06-02T15:43:52.614Z,5.07
2023-06-02T15:46:19.481Z,3.17
2023-06-02T15:48:47.840Z,3.63
2023-06-02T15:51:15.231Z,5.28
2023-06-02T15:53:42.265Z,7.20
2023-06-02T15:56:10.170Z,3.58
2023-06-02T15:58:37.061Z,1.30
2023-06-02T16:01:04.167Z,2.75
2023-06-02T16:03:31.135Z,2.70
2023-06-02T16:05:58.570Z,5.18
2023-06-02T16:08:25.680Z,4.82
2023-06-02T16:10:52.695Z,5.43
2023-06-02T16:13:21.324Z,1.77
2023-06-02T16:15:49.154Z,5.10
2023-06-02T16:18:16.261Z,5.40
2023-06-02T16:20:43.325Z,6.38
2023-06-02T16:23:10.186Z,2.13
2023-06-02T16:25:37.220Z,2.33
2023-06-02T16:28:04.203Z,2.30
2023-06-02T16:30:31.094Z,2.70
2023-06-02T16:32:58.038Z,2.25
2023-06-02T16:35:25.124Z,4.05
2023-06-02T16:37:52.255Z,4.07
2023-06-02T16:40:19.074Z,3.13
2023-06-02T16:42:46.571Z,2.97
2023-06-02T16:45:13.920Z,4.22
2023-06-02T16:47:40.837Z,1.80
2023-06-02T16:50:08.040Z,4.78
2023-06-02T16:52:34.961Z,2.40
2023-06-02T16:55:01.882Z,4.85
2023-06-02T16:57:28.747Z,2.95
2023-06-02T16:59:55.638Z,3.00
2023-06-02T17:02:22.657Z,2.28
2023-06-02T17:04:49.445Z,4.63
2023-06-02T17:07:16.437Z,3.83
2023-06-02T17:09:43.327Z,4.63
2023-06-02T17:12:10.239Z,1.55
2023-06-02T17:14:37.347Z,4.30
2023-06-02T17:17:04.327Z,8.48
2023-06-02T17:19:31.212Z,2.90
2023-06-02T17:21:58.158Z,2.42
2023-06-02T17:24:26.283Z,1.83
2023-06-02T17:26:53.224Z,5.10
2023-06-02T17:29:20.657Z,3.17
2023-06-02T17:31:47.567Z,2.45
2023-06-02T17:34:14.876Z,1.52
2023-06-02T17:36:43.861Z,1.77
2023-06-02T17:39:10.756Z,2.22
2023-06-02T17:41:37.580Z,3.17
2023-06-02T17:44:04.531Z,3.70
2023-06-02T17:46:33.536Z,3.08
2023-06-02T17:49:00.564Z,2.15
2023-06-02T17:51:28.539Z,1.90
2023-06-02T17:53:55.595Z,2.50
2023-06-02T17:56:22.888Z,1.35
2023-06-02T17:58:49.832Z,1.50
2023-06-02T18:01:16.807Z,4.88
2023-06-02T18:03:44.039Z,2.67
2023-06-02T18:06:11.109Z,3.42
2023-06-02T18:08:38.120Z,3.63
2023-06-02T18:11:05.430Z,3.22
2023-06-02T18:13:32.733Z,9.00
2023-06-02T18:15:59.598Z,1.73
2023-06-02T18:18:28.446Z,2.15
2023-06-02T18:20:55.482Z,2.10
2023-06-02T18:23:22.419Z,2.85
2023-06-02T18:25:49.392Z,5.78
2023-06-02T18:28:16.309Z,3.58
2023-06-02T18:30:43.173Z,4.28
2023-06-02T18:33:10.103Z,3.53
2023-06-02T18:35:36.930Z,2.38
2023-06-02T18:38:03.840Z,5.22
2023-06-02T18:40:30.732Z,1.55
2023-06-02T18:42:57.667Z,2.25
2023-06-02T18:45:24.520Z,3.28
2023-06-02T18:47:51.898Z,2.35
2023-06-02T18:50:18.830Z,2.00
2023-06-02T18:52:46.048Z,3.42
2023-06-02T18:55:13.061Z,5.00
2023-06-02T18:57:41.131Z,2.90
2023-06-02T19:00:11.523Z,5.07
2023-06-02T19:02:39.770Z,4.25
2023-06-02T19:05:07.234Z,4.18
2023-06-02T19:07:34.406Z,4.50
2023-06-02T19:10:01.257Z,3.55
2023-06-02T19:12:28.174Z,2.33
2023-06-02T19:14:55.688Z,3.22
2023-06-02T19:17:22.934Z,3.55
2023-06-02T19:19:49.973Z,1.25
2023-06-02T19:22:17.011Z,1.77
2023-06-02T19:24:44.269Z,2.33
2023-06-02T19:27:11.316Z,3.33
2023-06-02T19:29:40.265Z,3.25
2023-06-02T19:32:07.667Z,3.97
2023-06-02T19:34:34.750Z,6.15
2023-06-02T19:37:01.623Z,1.55
2023-06-02T19:39:28.519Z,4.85
2023-06-02T19:41:55.441Z,6.20
2023-06-02T19:44:22.346Z,5.28
2023-06-02T19:46:49.497Z,2.70
2023-06-02T19:49:16.644Z,3.40
2023-06-02T19:51:43.586Z,3.85
2023-06-02T19:54:10.744Z,3.15
2023-06-02T19:56:37.625Z,3.70
2023-06-02T19:59:04.638Z,7.88
2023-06-02T20:01:31.648Z,1.65
2023-06-02T20:03:58.580Z,4.72
2023-06-02T20:06:25.858Z,1.98
2023-06-02T20:08:52.773Z,3.22
2023-06-02T20:11:19.639Z,2.30
2023-06-02T20:13:47.000Z,3.70
2023-06-02T20:16:17.300Z,1.60
2023-06-02T20:18:44.236Z,3.05
2023-06-02T20:21:11.160Z,3.05
2023-06-02T20:23:38.150Z,3.08
2023-06-02T20:26:05.180Z,5.13
2023-06-02T20:28:32.064Z,2.72
2023-06-02T20:30:58.988Z,3.80
2023-06-02T20:33:25.995Z,2.10
2023-06-02T20:35:52.841Z,2.17
2023-06-02T20:38:20.788Z,2.92
2023-06-02T20:40:47.715Z,5.13
2023-06-02T20:43:14.645Z,3.95
2023-06-02T20:45:41.674Z,4.70
2023-06-02T20:48:08.712Z,3.45
2023-06-02T20:50:36.101Z,3.35
2023-06-02T20:53:04.090Z,3.83
2023-06-02T20:55:32.042Z,3.35
2023-06-02T20:57:58.962Z,2.15
2023-06-02T21:00:26.365Z,2.25
2023-06-02T21:02:53.488Z,2.15
2023-06-02T21:05:20.655Z,2.53
2023-06-02T21:07:47.607Z,1.55
2023-06-02T21:10:14.539Z,3.72
2023-06-02T21:12:41.458Z,2.30
2023-06-02T21:15:08.721Z,2.30
2023-06-02T21:17:35.710Z,1.67
2023-06-02T21:20:02.867Z,4.38
2023-06-02T21:22:29.781Z,1.55
2023-06-02T21:24:58.206Z,1.67
2023-06-02T21:27:25.129Z,1.70
2023-06-02T21:29:52.021Z,1.30
2023-06-02T21:32:19.017Z,3.08
2023-06-02T21:34:46.088Z,4.65
2023-06-02T21:37:12.926Z,1.48
2023-06-02T21:39:39.813Z,3.65
2023-06-02T21:42:07.351Z,2.83
2023-06-02T21:44:34.260Z,5.53
2023-06-02T21:47:01.269Z,1.38
2023-06-02T21:49:28.145Z,2.22
2023-06-02T21:51:54.985Z,2.47
2023-06-02T21:54:21.858Z,1.08
2023-06-02T21:56:48.946Z,2.53
2023-06-02T21:59:15.860Z,1.63
2023-06-02T22:01:42.880Z,1.20
2023-06-02T22:04:09.801Z,2.35
2023-06-02T22:06:37.866Z,1.23
2023-06-02T22:09:04.736Z,5.38
2023-06-02T22:11:31.783Z,1.00
2023-06-02T22:13:58.665Z,2.33
2023-06-02T22:16:25.608Z,1.42
2023-06-02T22:18:52.613Z,1.30
2023-06-02T22:21:35.612Z,2.08
2023-06-02T22:24:18.184Z,1.10
2023-06-02T22:26:52.928Z,1.35
2023-06-02T22:29:19.881Z,1.08
2023-06-02T22:31:46.991Z,1.45
2023-06-02T22:34:15.808Z,0.80
2023-06-02T22:36:44.251Z,3.95
2023-06-02T22:39:11.336Z,1.05
2023-06-02T22:41:38.289Z,1.20
2023-06-02T22:44:05.157Z,0.90
2023-06-02T22:46:32.264Z,1.15
2023-06-02T22:48:59.233Z,1.30
2023-06-02T22:51:26.108Z,1.20
2023-06-02T22:53:53.032Z,1.45
2023-06-02T22:56:19.930Z,0.95
2023-06-02T22:58:46.862Z,1.00
2023-06-02T23:01:13.774Z,0.75
2023-06-02T23:03:41.249Z,1.20
2023-06-02T23:06:08.130Z,1.00
2023-06-02T23:08:35.031Z,1.02
2023-06-02T23:11:03.425Z,0.93
2023-06-02T23:13:30.802Z,0.93
2023-06-02T23:15:57.827Z,4.30
2023-06-02T23:18:24.793Z,3.35
2023-06-02T23:20:52.023Z,1.25
2023-06-02T23:23:19.134Z,0.82
2023-06-02T23:25:46.186Z,0.80
2023-06-02T23:28:13.651Z,0.88
2023-06-02T23:30:40.637Z,1.30
2023-06-02T23:33:07.994Z,1.58
2023-06-02T23:35:35.014Z,0.98
2023-06-02T23:38:01.894Z,0.80
2023-06-02T23:40:28.869Z,0.90
2023-06-02T23:43:03.774Z,0.90
2023-06-02T23:45:30.869Z,1.42
2023-06-02T23:47:57.969Z,0.93
2023-06-02T23:50:25.087Z,1.08
2023-06-02T23:52:53.457Z,1.02
2023-06-02T23:55:21.273Z,1.20
2023-06-02T23:57:48.418Z,1.20
